Aviation Digital Data Service (ADDS)

Output produced by METARs form (1507 UTC 20 March 2019)
found at http://www.aviationweather.gov/metar/data/
 
METAR text: LFOK 201500Z AUTO 03006KT CAVOK 12/03 Q1033 NOSIG
Conditions at: LFOK (CHALONS/VATRY FA, FR) observed 1500 UTC 20 March 2019
Temperature: 12.0°C (54°F)
Dewpoint: 3.0°C (37°F) [RH = 54%]
Pressure (altimeter): 30.50 inches Hg (1033.0 mb)
Winds: from the NNE (30 degrees) at 7 MPH (6 knots; 3.1 m/s)
Visibility: 6 or more miles (10+ km)
Ceiling: ceiling and visibility are OK
Clouds: unknown
Weather: no significant weather observed at this time

METAR text: LFOK 201430Z AUTO 02007KT 9999 FEW043 BKN050 12/03 Q1033 NOSIG
Conditions at: LFOK (CHALONS/VATRY FA, FR) observed 1430 UTC 20 March 2019
Temperature: 12.0°C (54°F)
Dewpoint: 3.0°C (37°F) [RH = 54%]
Pressure (altimeter): 30.50 inches Hg (1033.0 mb)
Winds: from the NNE (20 degrees) at 8 MPH (7 knots; 3.6 m/s)
Visibility: 6 or more miles (10+ km)
Ceiling: 5000 feet AGL
Clouds: few clouds at 4300 feet AGL
broken clouds at 5000 feet AGL
Weather: no significant weather observed at this time

METAR text: LFOK 201400Z AUTO 02005KT 330V060 9999 FEW042 BKN052 13/03 Q1033 NOSIG
Conditions at: LFOK (CHALONS/VATRY FA, FR) observed 1400 UTC 20 March 2019
Temperature: 13.0°C (55°F)
Dewpoint: 3.0°C (37°F) [RH = 51%]
Pressure (altimeter): 30.50 inches Hg (1033.0 mb)
Winds: from the NNE (20 degrees) at 6 MPH (5 knots; 2.6 m/s)
Visibility: 6 or more miles (10+ km)
Ceiling: 5200 feet AGL
Clouds: few clouds at 4200 feet AGL
broken clouds at 5200 feet AGL
Weather: no significant weather observed at this time

METAR text: LFOK 201330Z AUTO 04004KT 310V100 9999 FEW039 13/03 Q1034 NOSIG
Conditions at: LFOK (CHALONS/VATRY FA, FR) observed 1330 UTC 20 March 2019
Temperature: 13.0°C (55°F)
Dewpoint: 3.0°C (37°F) [RH = 51%]
Pressure (altimeter): 30.53 inches Hg (1034.0 mb)
Winds: from the NE (40 degrees) at 5 MPH (4 knots; 2.1 m/s)
Visibility: 6 or more miles (10+ km)
Ceiling: at least 12,000 feet AGL
Clouds: few clouds at 3900 feet AGL
Weather: no significant weather observed at this time

METAR text: LFOK 201300Z AUTO 01006KT 330V070 CAVOK 13/03 Q1034 NOSIG
Conditions at: LFOK (CHALONS/VATRY FA, FR) observed 1300 UTC 20 March 2019
Temperature: 13.0°C (55°F)
Dewpoint: 3.0°C (37°F) [RH = 51%]
Pressure (altimeter): 30.53 inches Hg (1034.0 mb)
Winds: from the N (10 degrees) at 7 MPH (6 knots; 3.1 m/s)
Visibility: 6 or more miles (10+ km)
Ceiling: ceiling and visibility are OK
Clouds: unknown
Weather: no significant weather observed at this time

METAR text: LFOK 201230Z AUTO 03004KT 350V110 CAVOK 13/03 Q1034 NOSIG
Conditions at: LFOK (CHALONS/VATRY FA, FR) observed 1230 UTC 20 March 2019
Temperature: 13.0°C (55°F)
Dewpoint: 3.0°C (37°F) [RH = 51%]
Pressure (altimeter): 30.53 inches Hg (1034.0 mb)
Winds: from the NNE (30 degrees) at 5 MPH (4 knots; 2.1 m/s)
Visibility: 6 or more miles (10+ km)
Ceiling: ceiling and visibility are OK
Clouds: unknown
Weather: no significant weather observed at this time

METAR text: LFOK 201200Z AUTO VRB03KT CAVOK 12/04 Q1034 NOSIG
Conditions at: LFOK (CHALONS/VATRY FA, FR) observed 1200 UTC 20 March 2019
Temperature: 12.0°C (54°F)
Dewpoint: 4.0°C (39°F) [RH = 58%]
Pressure (altimeter): 30.53 inches Hg (1034.0 mb)
Winds: variable direction winds at 3 MPH (3 knots; 1.5 m/s)
Visibility: 6 or more miles (10+ km)
Ceiling: ceiling and visibility are OK
Clouds: unknown
Weather: no significant weather observed at this time

METAR text: LFOK 201130Z AUTO VRB03KT 9999 FEW009 12/03 Q1034 NOSIG
Conditions at: LFOK (CHALONS/VATRY FA, FR) observed 1130 UTC 20 March 2019
Temperature: 12.0°C (54°F)
Dewpoint: 3.0°C (37°F) [RH = 54%]
Pressure (altimeter): 30.53 inches Hg (1034.0 mb)
Winds: variable direction winds at 3 MPH (3 knots; 1.5 m/s)
Visibility: 6 or more miles (10+ km)
Ceiling: at least 12,000 feet AGL
Clouds: few clouds at 900 feet AGL
Weather: no significant weather observed at this time

METAR text: LFOK 201100Z AUTO 02004KT 350V100 CAVOK 11/03 Q1034 NOSIG
Conditions at: LFOK (CHALONS/VATRY FA, FR) observed 1100 UTC 20 March 2019
Temperature: 11.0°C (52°F)
Dewpoint: 3.0°C (37°F) [RH = 58%]
Pressure (altimeter): 30.53 inches Hg (1034.0 mb)
Winds: from the NNE (20 degrees) at 5 MPH (4 knots; 2.1 m/s)
Visibility: 6 or more miles (10+ km)
Ceiling: ceiling and visibility are OK
Clouds: unknown
Weather: no significant weather observed at this time

METAR text: LFOK 201030Z AUTO VRB03KT CAVOK 11/03 Q1035 NOSIG
Conditions at: LFOK (CHALONS/VATRY FA, FR) observed 1030 UTC 20 March 2019
Temperature: 11.0°C (52°F)
Dewpoint: 3.0°C (37°F) [RH = 58%]
Pressure (altimeter): 30.56 inches Hg (1035.0 mb)
Winds: variable direction winds at 3 MPH (3 knots; 1.5 m/s)
Visibility: 6 or more miles (10+ km)
Ceiling: ceiling and visibility are OK
Clouds: unknown
Weather: no significant weather observed at this time

METAR text: LFOK 201000Z AUTO 01004KT 350V050 CAVOK 10/03 Q1035 NOSIG
Conditions at: LFOK (CHALONS/VATRY FA, FR) observed 1000 UTC 20 March 2019
Temperature: 10.0°C (50°F)
Dewpoint: 3.0°C (37°F) [RH = 62%]
Pressure (altimeter): 30.56 inches Hg (1035.0 mb)
Winds: from the N (10 degrees) at 5 MPH (4 knots; 2.1 m/s)
Visibility: 6 or more miles (10+ km)
Ceiling: ceiling and visibility are OK
Clouds: unknown
Weather: no significant weather observed at this time

METAR text: LFOK 200930Z AUTO VRB02KT CAVOK 10/03 Q1034 NOSIG
Conditions at: LFOK (CHALONS/VATRY FA, FR) observed 0930 UTC 20 March 2019
Temperature: 10.0°C (50°F)
Dewpoint: 3.0°C (37°F) [RH = 62%]
Pressure (altimeter): 30.53 inches Hg (1034.0 mb)
Winds: variable direction winds at 2 MPH (2 knots; 1.0 m/s)
Visibility: 6 or more miles (10+ km)
Ceiling: ceiling and visibility are OK
Clouds: unknown
Weather: no significant weather observed at this time

METAR text: LFOK 200900Z AUTO VRB02KT CAVOK 10/03 Q1034 NOSIG
Conditions at: LFOK (CHALONS/VATRY FA, FR) observed 0900 UTC 20 March 2019
Temperature: 10.0°C (50°F)
Dewpoint: 3.0°C (37°F) [RH = 62%]
Pressure (altimeter): 30.53 inches Hg (1034.0 mb)
Winds: variable direction winds at 2 MPH (2 knots; 1.0 m/s)
Visibility: 6 or more miles (10+ km)
Ceiling: ceiling and visibility are OK
Clouds: unknown
Weather: no significant weather observed at this time

METAR text: LFOK 200830Z AUTO 00000KT CAVOK 09/03 Q1034 NOSIG
Conditions at: LFOK (CHALONS/VATRY FA, FR) observed 0830 UTC 20 March 2019
Temperature: 9.0°C (48°F)
Dewpoint: 3.0°C (37°F) [RH = 66%]
Pressure (altimeter): 30.53 inches Hg (1034.0 mb)
Winds: calm
Visibility: 6 or more miles (10+ km)
Ceiling: ceiling and visibility are OK
Clouds: unknown
Weather: no significant weather observed at this time

METAR text: LFOK 200800Z AUTO 00000KT CAVOK 06/03 Q1034 NOSIG
Conditions at: LFOK (CHALONS/VATRY FA, FR) observed 0800 UTC 20 March 2019
Temperature: 6.0°C (43°F)
Dewpoint: 3.0°C (37°F) [RH = 81%]
Pressure (altimeter): 30.53 inches Hg (1034.0 mb)
Winds: calm
Visibility: 6 or more miles (10+ km)
Ceiling: ceiling and visibility are OK
Clouds: unknown
Weather: no significant weather observed at this time

METAR text: LFOK 200730Z AUTO 35001KT CAVOK 05/02 Q1034 NOSIG
Conditions at: LFOK (CHALONS/VATRY FA, FR) observed 0730 UTC 20 March 2019
Temperature: 5.0°C (41°F)
Dewpoint: 2.0°C (36°F) [RH = 81%]
Pressure (altimeter): 30.53 inches Hg (1034.0 mb)
Winds: from the N (350 degrees) at 1 MPH (1 knots; 0.5 m/s)
Visibility: 6 or more miles (10+ km)
Ceiling: ceiling and visibility are OK
Clouds: unknown
Weather: no significant weather observed at this time

METAR text: LFOK 200700Z AUTO 34003KT CAVOK 05/01 Q1033 NOSIG
Conditions at: LFOK (CHALONS/VATRY FA, FR) observed 0700 UTC 20 March 2019
Temperature: 5.0°C (41°F)
Dewpoint: 1.0°C (34°F) [RH = 75%]
Pressure (altimeter): 30.50 inches Hg (1033.0 mb)
Winds: from the NNW (340 degrees) at 3 MPH (3 knots; 1.5 m/s)
Visibility: 6 or more miles (10+ km)
Ceiling: ceiling and visibility are OK
Clouds: unknown
Weather: no significant weather observed at this time

METAR text: LFOK 200630Z AUTO 32002KT CAVOK 04/01 Q1033 NOSIG
Conditions at: LFOK (CHALONS/VATRY FA, FR) observed 0630 UTC 20 March 2019
Temperature: 4.0°C (39°F)
Dewpoint: 1.0°C (34°F) [RH = 81%]
Pressure (altimeter): 30.50 inches Hg (1033.0 mb)
Winds: from the NW (320 degrees) at 2 MPH (2 knots; 1.0 m/s)
Visibility: 6 or more miles (10+ km)
Ceiling: ceiling and visibility are OK
Clouds: unknown
Weather: no significant weather observed at this time

METAR text: LFOK 200600Z AUTO VRB02KT CAVOK 04/01 Q1033 NOSIG
Conditions at: LFOK (CHALONS/VATRY FA, FR) observed 0600 UTC 20 March 2019
Temperature: 4.0°C (39°F)
Dewpoint: 1.0°C (34°F) [RH = 81%]
Pressure (altimeter): 30.50 inches Hg (1033.0 mb)
Winds: variable direction winds at 2 MPH (2 knots; 1.0 m/s)
Visibility: 6 or more miles (10+ km)
Ceiling: ceiling and visibility are OK
Clouds: unknown
Weather: no significant weather observed at this time

METAR text: LFOK 200530Z AUTO 31002KT CAVOK 03/01 Q1033 NOSIG
Conditions at: LFOK (CHALONS/VATRY FA, FR) observed 0530 UTC 20 March 2019
Temperature: 3.0°C (37°F)
Dewpoint: 1.0°C (34°F) [RH = 87%]
Pressure (altimeter): 30.50 inches Hg (1033.0 mb)
Winds: from the NW (310 degrees) at 2 MPH (2 knots; 1.0 m/s)
Visibility: 6 or more miles (10+ km)
Ceiling: ceiling and visibility are OK
Clouds: unknown
Weather: no significant weather observed at this time

METAR text: LFOK 200500Z AUTO 29002KT CAVOK 04/00 Q1032 NOSIG
Conditions at: LFOK (CHALONS/VATRY FA, FR) observed 0500 UTC 20 March 2019
Temperature: 4.0°C (39°F)
Dewpoint: 0.0°C (32°F) [RH = 75%]
Pressure (altimeter): 30.47 inches Hg (1032.0 mb)
Winds: from the WNW (290 degrees) at 2 MPH (2 knots; 1.0 m/s)
Visibility: 6 or more miles (10+ km)
Ceiling: ceiling and visibility are OK
Clouds: unknown
Weather: no significant weather observed at this time

METAR text: LFOK 200430Z AUTO VRB01KT CAVOK 04/01 Q1032 NOSIG
Conditions at: LFOK (CHALONS/VATRY FA, FR) observed 0430 UTC 20 March 2019
Temperature: 4.0°C (39°F)
Dewpoint: 1.0°C (34°F) [RH = 81%]
Pressure (altimeter): 30.47 inches Hg (1032.0 mb)
Winds: variable direction winds at 1 MPH (1 knots; 0.5 m/s)
Visibility: 6 or more miles (10+ km)
Ceiling: ceiling and visibility are OK
Clouds: unknown
Weather: no significant weather observed at this time

METAR text: LFOK 200400Z AUTO 33003KT 9999 FEW049 BKN066 04/01 Q1032 NOSIG
Conditions at: LFOK (CHALONS/VATRY FA, FR) observed 0400 UTC 20 March 2019
Temperature: 4.0°C (39°F)
Dewpoint: 1.0°C (34°F) [RH = 81%]
Pressure (altimeter): 30.47 inches Hg (1032.0 mb)
Winds: from the NNW (330 degrees) at 3 MPH (3 knots; 1.5 m/s)
Visibility: 6 or more miles (10+ km)
Ceiling: 6600 feet AGL
Clouds: few clouds at 4900 feet AGL
broken clouds at 6600 feet AGL
Weather: no significant weather observed at this time

METAR text: LFOK 200330Z AUTO 31003KT 9999 SCT048 OVC066 04/01 Q1032 NOSIG
Conditions at: LFOK (CHALONS/VATRY FA, FR) observed 0330 UTC 20 March 2019
Temperature: 4.0°C (39°F)
Dewpoint: 1.0°C (34°F) [RH = 81%]
Pressure (altimeter): 30.47 inches Hg (1032.0 mb)
Winds: from the NW (310 degrees) at 3 MPH (3 knots; 1.5 m/s)
Visibility: 6 or more miles (10+ km)
Ceiling: 6600 feet AGL
Clouds: scattered clouds at 4800 feet AGL
overcast cloud deck at 6600 feet AGL
Weather: no significant weather observed at this time

METAR text: LFOK 200300Z AUTO VRB03KT 9999 BKN046 BKN054 OVC068 04/01 Q1032 NOSIG
Conditions at: LFOK (CHALONS/VATRY FA, FR) observed 0300 UTC 20 March 2019
Temperature: 4.0°C (39°F)
Dewpoint: 1.0°C (34°F) [RH = 81%]
Pressure (altimeter): 30.47 inches Hg (1032.0 mb)
Winds: variable direction winds at 3 MPH (3 knots; 1.5 m/s)
Visibility: 6 or more miles (10+ km)
Ceiling: 4600 feet AGL
Clouds: broken clouds at 4600 feet AGL
broken clouds at 5400 feet AGL
overcast cloud deck at 6800 feet AGL
Weather: no significant weather observed at this time

METAR text: LFOK 200230Z AUTO 29004KT 9999 BKN047 BKN054 OVC070 05/01 Q1032 NOSIG
Conditions at: LFOK (CHALONS/VATRY FA, FR) observed 0230 UTC 20 March 2019
Temperature: 5.0°C (41°F)
Dewpoint: 1.0°C (34°F) [RH = 75%]
Pressure (altimeter): 30.47 inches Hg (1032.0 mb)
Winds: from the WNW (290 degrees) at 5 MPH (4 knots; 2.1 m/s)
Visibility: 6 or more miles (10+ km)
Ceiling: 4700 feet AGL
Clouds: broken clouds at 4700 feet AGL
broken clouds at 5400 feet AGL
overcast cloud deck at 7000 feet AGL
Weather: no significant weather observed at this time

METAR text: LFOK 200200Z AUTO 28003KT 9999 BKN047 BKN072 04/01 Q1032 NOSIG
Conditions at: LFOK (CHALONS/VATRY FA, FR) observed 0200 UTC 20 March 2019
Temperature: 4.0°C (39°F)
Dewpoint: 1.0°C (34°F) [RH = 81%]
Pressure (altimeter): 30.47 inches Hg (1032.0 mb)
Winds: from the W (280 degrees) at 3 MPH (3 knots; 1.5 m/s)
Visibility: 6 or more miles (10+ km)
Ceiling: 4700 feet AGL
Clouds: broken clouds at 4700 feet AGL
broken clouds at 7200 feet AGL
Weather: no significant weather observed at this time

METAR text: LFOK 200130Z AUTO 24003KT CAVOK 03/00 Q1032 NOSIG
Conditions at: LFOK (CHALONS/VATRY FA, FR) observed 0130 UTC 20 March 2019
Temperature: 3.0°C (37°F)
Dewpoint: 0.0°C (32°F) [RH = 81%]
Pressure (altimeter): 30.47 inches Hg (1032.0 mb)
Winds: from the WSW (240 degrees) at 3 MPH (3 knots; 1.5 m/s)
Visibility: 6 or more miles (10+ km)
Ceiling: ceiling and visibility are OK
Clouds: unknown
Weather: no significant weather observed at this time

METAR text: LFOK 200100Z AUTO 27005KT CAVOK 03/01 Q1032 NOSIG
Conditions at: LFOK (CHALONS/VATRY FA, FR) observed 0100 UTC 20 March 2019
Temperature: 3.0°C (37°F)
Dewpoint: 1.0°C (34°F) [RH = 87%]
Pressure (altimeter): 30.47 inches Hg (1032.0 mb)
Winds: from the W (270 degrees) at 6 MPH (5 knots; 2.6 m/s)
Visibility: 6 or more miles (10+ km)
Ceiling: ceiling and visibility are OK
Clouds: unknown
Weather: no significant weather observed at this time

METAR text: LFOK 200030Z AUTO 28004KT CAVOK 03/01 Q1032 NOSIG
Conditions at: LFOK (CHALONS/VATRY FA, FR) observed 0030 UTC 20 March 2019
Temperature: 3.0°C (37°F)
Dewpoint: 1.0°C (34°F) [RH = 87%]
Pressure (altimeter): 30.47 inches Hg (1032.0 mb)
Winds: from the W (280 degrees) at 5 MPH (4 knots; 2.1 m/s)
Visibility: 6 or more miles (10+ km)
Ceiling: ceiling and visibility are OK
Clouds: unknown
Weather: no significant weather observed at this time

METAR text: LFOK 200000Z AUTO 28004KT CAVOK 05/00 Q1032 NOSIG
Conditions at: LFOK (CHALONS/VATRY FA, FR) observed 0000 UTC 20 March 2019
Temperature: 5.0°C (41°F)
Dewpoint: 0.0°C (32°F) [RH = 70%]
Pressure (altimeter): 30.47 inches Hg (1032.0 mb)
Winds: from the W (280 degrees) at 5 MPH (4 knots; 2.1 m/s)
Visibility: 6 or more miles (10+ km)
Ceiling: ceiling and visibility are OK
Clouds: unknown
Weather: no significant weather observed at this time

METAR text: LFOK 192330Z AUTO 25004KT CAVOK 03/00 Q1032 TEMPO 1500 MIFG
Conditions at: LFOK (CHALONS/VATRY FA, FR) observed 2330 UTC 19 March 2019
Temperature: 3.0°C (37°F)
Dewpoint: 0.0°C (32°F) [RH = 81%]
Pressure (altimeter): 30.47 inches Hg (1032.0 mb)
Winds: from the WSW (250 degrees) at 5 MPH (4 knots; 2.1 m/s)
Visibility: 6 or more miles (10+ km)
Ceiling: ceiling and visibility are OK
Clouds: unknown
Weather: no significant weather observed at this time

METAR text: LFOK 192300Z AUTO 23002KT CAVOK 04/01 Q1032 TEMPO 1500 MIFG
Conditions at: LFOK (CHALONS/VATRY FA, FR) observed 2300 UTC 19 March 2019
Temperature: 4.0°C (39°F)
Dewpoint: 1.0°C (34°F) [RH = 81%]
Pressure (altimeter): 30.47 inches Hg (1032.0 mb)
Winds: from the SW (230 degrees) at 2 MPH (2 knots; 1.0 m/s)
Visibility: 6 or more miles (10+ km)
Ceiling: ceiling and visibility are OK
Clouds: unknown
Weather: no significant weather observed at this time

METAR text: LFOK 192230Z AUTO 24002KT CAVOK 05/M00 Q1032 TEMPO 1500 MIFG
Conditions at: LFOK (CHALONS/VATRY FA, FR) observed 2230 UTC 19 March 2019
Temperature: 5.0°C (41°F)
Dewpoint: 0.0°C (32°F) [RH = 70%]
Pressure (altimeter): 30.47 inches Hg (1032.0 mb)
Winds: from the WSW (240 degrees) at 2 MPH (2 knots; 1.0 m/s)
Visibility: 6 or more miles (10+ km)
Ceiling: ceiling and visibility are OK
Clouds: unknown
Weather: no significant weather observed at this time

METAR text: LFOK 192200Z AUTO 18002KT CAVOK 05/01 Q1032 NOSIG
Conditions at: LFOK (CHALONS/VATRY FA, FR) observed 2200 UTC 19 March 2019
Temperature: 5.0°C (41°F)
Dewpoint: 1.0°C (34°F) [RH = 75%]
Pressure (altimeter): 30.47 inches Hg (1032.0 mb)
Winds: from the S (180 degrees) at 2 MPH (2 knots; 1.0 m/s)
Visibility: 6 or more miles (10+ km)
Ceiling: ceiling and visibility are OK
Clouds: unknown
Weather: no significant weather observed at this time

METAR text: LFOK 192130Z AUTO 19001KT CAVOK 05/00 Q1031 NOSIG
Conditions at: LFOK (CHALONS/VATRY FA, FR) observed 2130 UTC 19 March 2019
Temperature: 5.0°C (41°F)
Dewpoint: 0.0°C (32°F) [RH = 70%]
Pressure (altimeter): 30.44 inches Hg (1031.0 mb)
Winds: from the S (190 degrees) at 1 MPH (1 knots; 0.5 m/s)
Visibility: 6 or more miles (10+ km)
Ceiling: ceiling and visibility are OK
Clouds: unknown
Weather: no significant weather observed at this time

METAR text: LFOK 192100Z AUTO 17003KT CAVOK 04/01 Q1031 NOSIG
Conditions at: LFOK (CHALONS/VATRY FA, FR) observed 2100 UTC 19 March 2019
Temperature: 4.0°C (39°F)
Dewpoint: 1.0°C (34°F) [RH = 81%]
Pressure (altimeter): 30.44 inches Hg (1031.0 mb)
Winds: from the S (170 degrees) at 3 MPH (3 knots; 1.5 m/s)
Visibility: 6 or more miles (10+ km)
Ceiling: ceiling and visibility are OK
Clouds: unknown
Weather: no significant weather observed at this time

METAR text: LFOK 192030Z AUTO 17003KT CAVOK 05/01 Q1031 NOSIG
Conditions at: LFOK (CHALONS/VATRY FA, FR) observed 2030 UTC 19 March 2019
Temperature: 5.0°C (41°F)
Dewpoint: 1.0°C (34°F) [RH = 75%]
Pressure (altimeter): 30.44 inches Hg (1031.0 mb)
Winds: from the S (170 degrees) at 3 MPH (3 knots; 1.5 m/s)
Visibility: 6 or more miles (10+ km)
Ceiling: ceiling and visibility are OK
Clouds: unknown
Weather: no significant weather observed at this time

METAR text: LFOK 192000Z AUTO 17003KT CAVOK 05/01 Q1031 NOSIG
Conditions at: LFOK (CHALONS/VATRY FA, FR) observed 2000 UTC 19 March 2019
Temperature: 5.0°C (41°F)
Dewpoint: 1.0°C (34°F) [RH = 75%]
Pressure (altimeter): 30.44 inches Hg (1031.0 mb)
Winds: from the S (170 degrees) at 3 MPH (3 knots; 1.5 m/s)
Visibility: 6 or more miles (10+ km)
Ceiling: ceiling and visibility are OK
Clouds: unknown
Weather: no significant weather observed at this time

METAR text: LFOK 191930Z AUTO 10004KT CAVOK 06/00 Q1031 NOSIG
Conditions at: LFOK (CHALONS/VATRY FA, FR) observed 1930 UTC 19 March 2019
Temperature: 6.0°C (43°F)
Dewpoint: 0.0°C (32°F) [RH = 65%]
Pressure (altimeter): 30.44 inches Hg (1031.0 mb)
Winds: from the E (100 degrees) at 5 MPH (4 knots; 2.1 m/s)
Visibility: 6 or more miles (10+ km)
Ceiling: ceiling and visibility are OK
Clouds: unknown
Weather: no significant weather observed at this time

METAR text: LFOK 191900Z AUTO 12004KT CAVOK 06/01 Q1030 NOSIG
Conditions at: LFOK (CHALONS/VATRY FA, FR) observed 1900 UTC 19 March 2019
Temperature: 6.0°C (43°F)
Dewpoint: 1.0°C (34°F) [RH = 70%]
Pressure (altimeter): 30.41 inches Hg (1030.0 mb)
Winds: from the ESE (120 degrees) at 5 MPH (4 knots; 2.1 m/s)
Visibility: 6 or more miles (10+ km)
Ceiling: ceiling and visibility are OK
Clouds: unknown
Weather: no significant weather observed at this time

METAR text: LFOK 191830Z AUTO 10005KT CAVOK 07/01 Q1030 NOSIG
Conditions at: LFOK (CHALONS/VATRY FA, FR) observed 1830 UTC 19 March 2019
Temperature: 7.0°C (45°F)
Dewpoint: 1.0°C (34°F) [RH = 66%]
Pressure (altimeter): 30.41 inches Hg (1030.0 mb)
Winds: from the E (100 degrees) at 6 MPH (5 knots; 2.6 m/s)
Visibility: 6 or more miles (10+ km)
Ceiling: ceiling and visibility are OK
Clouds: unknown
Weather: no significant weather observed at this time

METAR text: LFOK 191800Z AUTO 07005KT CAVOK 08/01 Q1030 NOSIG
Conditions at: LFOK (CHALONS/VATRY FA, FR) observed 1800 UTC 19 March 2019
Temperature: 8.0°C (46°F)
Dewpoint: 1.0°C (34°F) [RH = 61%]
Pressure (altimeter): 30.41 inches Hg (1030.0 mb)
Winds: from the ENE (70 degrees) at 6 MPH (5 knots; 2.6 m/s)
Visibility: 6 or more miles (10+ km)
Ceiling: ceiling and visibility are OK
Clouds: unknown
Weather: no significant weather observed at this time

METAR text: LFOK 191730Z AUTO 05005KT CAVOK 09/02 Q1029 NOSIG
Conditions at: LFOK (CHALONS/VATRY FA, FR) observed 1730 UTC 19 March 2019
Temperature: 9.0°C (48°F)
Dewpoint: 2.0°C (36°F) [RH = 61%]
Pressure (altimeter): 30.38 inches Hg (1029.0 mb)
Winds: from the NE (50 degrees) at 6 MPH (5 knots; 2.6 m/s)
Visibility: 6 or more miles (10+ km)
Ceiling: ceiling and visibility are OK
Clouds: unknown
Weather: no significant weather observed at this time

METAR text: LFOK 191700Z AUTO 05007KT CAVOK 10/01 Q1029 NOSIG
Conditions at: LFOK (CHALONS/VATRY FA, FR) observed 1700 UTC 19 March 2019
Temperature: 10.0°C (50°F)
Dewpoint: 1.0°C (34°F) [RH = 53%]
Pressure (altimeter): 30.38 inches Hg (1029.0 mb)
Winds: from the NE (50 degrees) at 8 MPH (7 knots; 3.6 m/s)
Visibility: 6 or more miles (10+ km)
Ceiling: ceiling and visibility are OK
Clouds: unknown
Weather: no significant weather observed at this time

METAR text: LFOK 191630Z AUTO 04007KT CAVOK 10/M00 Q1029 NOSIG
Conditions at: LFOK (CHALONS/VATRY FA, FR) observed 1630 UTC 19 March 2019
Temperature: 10.0°C (50°F)
Dewpoint: 0.0°C (32°F) [RH = 50%]
Pressure (altimeter): 30.38 inches Hg (1029.0 mb)
Winds: from the NE (40 degrees) at 8 MPH (7 knots; 3.6 m/s)
Visibility: 6 or more miles (10+ km)
Ceiling: ceiling and visibility are OK
Clouds: unknown
Weather: no significant weather observed at this time

METAR text: LFOK 191600Z AUTO 03007KT CAVOK 10/00 Q1029 NOSIG
Conditions at: LFOK (CHALONS/VATRY FA, FR) observed 1600 UTC 19 March 2019
Temperature: 10.0°C (50°F)
Dewpoint: 0.0°C (32°F) [RH = 50%]
Pressure (altimeter): 30.38 inches Hg (1029.0 mb)
Winds: from the NNE (30 degrees) at 8 MPH (7 knots; 3.6 m/s)
Visibility: 6 or more miles (10+ km)
Ceiling: ceiling and visibility are OK
Clouds: unknown
Weather: no significant weather observed at this time

METAR text: LFOK 191530Z AUTO 03006KT 9999 FEW011 10/00 Q1029 NOSIG
Conditions at: LFOK (CHALONS/VATRY FA, FR) observed 1530 UTC 19 March 2019
Temperature: 10.0°C (50°F)
Dewpoint: 0.0°C (32°F) [RH = 50%]
Pressure (altimeter): 30.38 inches Hg (1029.0 mb)
Winds: from the NNE (30 degrees) at 7 MPH (6 knots; 3.1 m/s)
Visibility: 6 or more miles (10+ km)
Ceiling: at least 12,000 feet AGL
Clouds: few clouds at 1100 feet AGL
Weather: no significant weather observed at this time

METAR text: LFOK 191500Z AUTO 02007KT 340V070 CAVOK 10/00 Q1029 NOSIG
Conditions at: LFOK (CHALONS/VATRY FA, FR) observed 1500 UTC 19 March 2019
Temperature: 10.0°C (50°F)
Dewpoint: 0.0°C (32°F) [RH = 50%]
Pressure (altimeter): 30.38 inches Hg (1029.0 mb)
Winds: from the NNE (20 degrees) at 8 MPH (7 knots; 3.6 m/s)
Visibility: 6 or more miles (10+ km)
Ceiling: ceiling and visibility are OK
Clouds: unknown
Weather: no significant weather observed at this time

METAR text: LFOK 191430Z AUTO 03008KT 350V060 9999 FEW039 10/00 Q1029 NOSIG
Conditions at: LFOK (CHALONS/VATRY FA, FR) observed 1430 UTC 19 March 2019
Temperature: 10.0°C (50°F)
Dewpoint: 0.0°C (32°F) [RH = 50%]
Pressure (altimeter): 30.38 inches Hg (1029.0 mb)
Winds: from the NNE (30 degrees) at 9 MPH (8 knots; 4.1 m/s)
Visibility: 6 or more miles (10+ km)
Ceiling: at least 12,000 feet AGL
Clouds: few clouds at 3900 feet AGL
Weather: no significant weather observed at this time

METAR text: LFOK 191400Z AUTO 03007KT 360V060 9999 SCT039 10/00 Q1029 NOSIG
Conditions at: LFOK (CHALONS/VATRY FA, FR) observed 1400 UTC 19 March 2019
Temperature: 10.0°C (50°F)
Dewpoint: 0.0°C (32°F) [RH = 50%]
Pressure (altimeter): 30.38 inches Hg (1029.0 mb)
Winds: from the NNE (30 degrees) at 8 MPH (7 knots; 3.6 m/s)
Visibility: 6 or more miles (10+ km)
Ceiling: at least 12,000 feet AGL
Clouds: scattered clouds at 3900 feet AGL
Weather: no significant weather observed at this time

METAR text: LFOK 191330Z AUTO 01007KT 310V050 9999 FEW040 10/00 Q1029 NOSIG
Conditions at: LFOK (CHALONS/VATRY FA, FR) observed 1330 UTC 19 March 2019
Temperature: 10.0°C (50°F)
Dewpoint: 0.0°C (32°F) [RH = 50%]
Pressure (altimeter): 30.38 inches Hg (1029.0 mb)
Winds: from the N (10 degrees) at 8 MPH (7 knots; 3.6 m/s)
Visibility: 6 or more miles (10+ km)
Ceiling: at least 12,000 feet AGL
Clouds: few clouds at 4000 feet AGL
Weather: no significant weather observed at this time

METAR text: LFOK 191300Z AUTO 06005KT 010V120 9999 SCT037 10/01 Q1029 NOSIG
Conditions at: LFOK (CHALONS/VATRY FA, FR) observed 1300 UTC 19 March 2019
Temperature: 10.0°C (50°F)
Dewpoint: 1.0°C (34°F) [RH = 53%]
Pressure (altimeter): 30.38 inches Hg (1029.0 mb)
Winds: from the ENE (60 degrees) at 6 MPH (5 knots; 2.6 m/s)
Visibility: 6 or more miles (10+ km)
Ceiling: at least 12,000 feet AGL
Clouds: scattered clouds at 3700 feet AGL
Weather: no significant weather observed at this time

METAR text: LFOK 191230Z AUTO 36006KT 310V030 9999 SCT037 10/02 Q1029 NOSIG
Conditions at: LFOK (CHALONS/VATRY FA, FR) observed 1230 UTC 19 March 2019
Temperature: 10.0°C (50°F)
Dewpoint: 2.0°C (36°F) [RH = 57%]
Pressure (altimeter): 30.38 inches Hg (1029.0 mb)
Winds: from the N (360 degrees) at 7 MPH (6 knots; 3.1 m/s)
Visibility: 6 or more miles (10+ km)
Ceiling: at least 12,000 feet AGL
Clouds: scattered clouds at 3700 feet AGL
Weather: no significant weather observed at this time

METAR text: LFOK 191200Z AUTO 05006KT 010V090 9999 FEW034 09/02 Q1029 NOSIG
Conditions at: LFOK (CHALONS/VATRY FA, FR) observed 1200 UTC 19 March 2019
Temperature: 9.0°C (48°F)
Dewpoint: 2.0°C (36°F) [RH = 61%]
Pressure (altimeter): 30.38 inches Hg (1029.0 mb)
Winds: from the NE (50 degrees) at 7 MPH (6 knots; 3.1 m/s)
Visibility: 6 or more miles (10+ km)
Ceiling: at least 12,000 feet AGL
Clouds: few clouds at 3400 feet AGL
Weather: no significant weather observed at this time

METAR text: LFOK 191130Z AUTO 03006KT 360V070 9999 FEW031 09/01 Q1029 NOSIG
Conditions at: LFOK (CHALONS/VATRY FA, FR) observed 1130 UTC 19 March 2019
Temperature: 9.0°C (48°F)
Dewpoint: 1.0°C (34°F) [RH = 57%]
Pressure (altimeter): 30.38 inches Hg (1029.0 mb)
Winds: from the NNE (30 degrees) at 7 MPH (6 knots; 3.1 m/s)
Visibility: 6 or more miles (10+ km)
Ceiling: at least 12,000 feet AGL
Clouds: few clouds at 3100 feet AGL
Weather: no significant weather observed at this time

METAR text: LFOK 191100Z AUTO 03005KT 340V080 CAVOK 09/01 Q1029 NOSIG
Conditions at: LFOK (CHALONS/VATRY FA, FR) observed 1100 UTC 19 March 2019
Temperature: 9.0°C (48°F)
Dewpoint: 1.0°C (34°F) [RH = 57%]
Pressure (altimeter): 30.38 inches Hg (1029.0 mb)
Winds: from the NNE (30 degrees) at 6 MPH (5 knots; 2.6 m/s)
Visibility: 6 or more miles (10+ km)
Ceiling: ceiling and visibility are OK
Clouds: unknown
Weather: no significant weather observed at this time

METAR text: LFOK 191030Z AUTO 06005KT 020V110 CAVOK 08/02 Q1029 NOSIG
Conditions at: LFOK (CHALONS/VATRY FA, FR) observed 1030 UTC 19 March 2019
Temperature: 8.0°C (46°F)
Dewpoint: 2.0°C (36°F) [RH = 66%]
Pressure (altimeter): 30.38 inches Hg (1029.0 mb)
Winds: from the ENE (60 degrees) at 6 MPH (5 knots; 2.6 m/s)
Visibility: 6 or more miles (10+ km)
Ceiling: ceiling and visibility are OK
Clouds: unknown
Weather: no significant weather observed at this time

METAR text: LFOK 191000Z AUTO 12005KT 080V140 CAVOK 08/03 Q1029 NOSIG
Conditions at: LFOK (CHALONS/VATRY FA, FR) observed 1000 UTC 19 March 2019
Temperature: 8.0°C (46°F)
Dewpoint: 3.0°C (37°F) [RH = 71%]
Pressure (altimeter): 30.38 inches Hg (1029.0 mb)
Winds: from the ESE (120 degrees) at 6 MPH (5 knots; 2.6 m/s)
Visibility: 6 or more miles (10+ km)
Ceiling: ceiling and visibility are OK
Clouds: unknown
Weather: no significant weather observed at this time

METAR text: LFOK 190930Z AUTO 07004KT 040V110 CAVOK 06/04 Q1029 NOSIG
Conditions at: LFOK (CHALONS/VATRY FA, FR) observed 0930 UTC 19 March 2019
Temperature: 6.0°C (43°F)
Dewpoint: 4.0°C (39°F) [RH = 87%]
Pressure (altimeter): 30.38 inches Hg (1029.0 mb)
Winds: from the ENE (70 degrees) at 5 MPH (4 knots; 2.1 m/s)
Visibility: 6 or more miles (10+ km)
Ceiling: ceiling and visibility are OK
Clouds: unknown
Weather: no significant weather observed at this time

METAR text: LFOK 190900Z AUTO 05006KT 9999 FEW005 05/03 Q1028 NOSIG
Conditions at: LFOK (CHALONS/VATRY FA, FR) observed 0900 UTC 19 March 2019
Temperature: 5.0°C (41°F)
Dewpoint: 3.0°C (37°F) [RH = 87%]
Pressure (altimeter): 30.35 inches Hg (1028.0 mb)
Winds: from the NE (50 degrees) at 7 MPH (6 knots; 3.1 m/s)
Visibility: 6 or more miles (10+ km)
Ceiling: at least 12,000 feet AGL
Clouds: few clouds at 500 feet AGL
Weather: no significant weather observed at this time

METAR text: LFOK 190830Z AUTO 03005KT 7000 FEW003 04/03 Q1028 NOSIG
Conditions at: LFOK (CHALONS/VATRY FA, FR) observed 0830 UTC 19 March 2019
Temperature: 4.0°C (39°F)
Dewpoint: 3.0°C (37°F) [RH = 93%]
Pressure (altimeter): 30.35 inches Hg (1028.0 mb)
Winds: from the NNE (30 degrees) at 6 MPH (5 knots; 2.6 m/s)
Visibility: 4 miles ( 7 km)
Ceiling: at least 12,000 feet AGL
Clouds: few clouds at 300 feet AGL
Weather: no significant weather observed at this time

METAR text: LFOK 190800Z AUTO 04004KT 6000 NSC 03/02 Q1028 NOSIG
Conditions at: LFOK (CHALONS/VATRY FA, FR) observed 0800 UTC 19 March 2019
Temperature: 3.0°C (37°F)
Dewpoint: 2.0°C (36°F) [RH = 93%]
Pressure (altimeter): 30.35 inches Hg (1028.0 mb)
Winds: from the NE (40 degrees) at 5 MPH (4 knots; 2.1 m/s)
Visibility: 4 miles ( 6 km)
Ceiling: at least 12,000 feet AGL
Clouds: sky clear below 12,000 feet AGL
Weather: no significant weather observed at this time

METAR text: LFOK 190730Z AUTO 04003KT 4300 BR NSC 03/02 Q1028 BECMG 8000 NSW
Conditions at: LFOK (CHALONS/VATRY FA, FR) observed 0730 UTC 19 March 2019
Temperature: 3.0°C (37°F)
Dewpoint: 2.0°C (36°F) [RH = 93%]
Pressure (altimeter): 30.35 inches Hg (1028.0 mb)
Winds: from the NE (40 degrees) at 3 MPH (3 knots; 1.5 m/s)
Visibility: 2.67 miles (4.30 km)
Ceiling: at least 12,000 feet AGL
Clouds: sky clear below 12,000 feet AGL
Weather: BR  (mist)

METAR text: LFOK 190700Z AUTO 04005KT 5000 BR NSC 01/01 Q1027 NOSIG
Conditions at: LFOK (CHALONS/VATRY FA, FR) observed 0700 UTC 19 March 2019
Temperature: 1.0°C (34°F)
Dewpoint: 1.0°C (34°F) [RH = 100%]
Pressure (altimeter): 30.32 inches Hg (1027.0 mb)
Winds: from the NE (40 degrees) at 6 MPH (5 knots; 2.6 m/s)
Visibility: 3 miles ( 5 km)
Ceiling: at least 12,000 feet AGL
Clouds: sky clear below 12,000 feet AGL
Weather: BR  (mist)

METAR text: LFOK 190630Z AUTO 04005KT 7000 NSC 01/00 Q1027 TEMPO 3000 BR
Conditions at: LFOK (CHALONS/VATRY FA, FR) observed 0630 UTC 19 March 2019
Temperature: 1.0°C (34°F)
Dewpoint: 0.0°C (32°F) [RH = 93%]
Pressure (altimeter): 30.32 inches Hg (1027.0 mb)
Winds: from the NE (40 degrees) at 6 MPH (5 knots; 2.6 m/s)
Visibility: 4 miles ( 7 km)
Ceiling: at least 12,000 feet AGL
Clouds: sky clear below 12,000 feet AGL
Weather: no significant weather observed at this time

METAR text: LFOK 190600Z AUTO 35005KT 8000 NSC M01/M01 Q1027 TEMPO 3000 BR
Conditions at: LFOK (CHALONS/VATRY FA, FR) observed 0600 UTC 19 March 2019
Temperature: -1.0°C (30°F)
Dewpoint: -1.0°C (30°F) [RH = 100%]
Pressure (altimeter): 30.32 inches Hg (1027.0 mb)
Winds: from the N (350 degrees) at 6 MPH (5 knots; 2.6 m/s)
Visibility: 5 miles ( 8 km)
Ceiling: at least 12,000 feet AGL
Clouds: sky clear below 12,000 feet AGL
Weather: no significant weather observed at this time

METAR text: LFOK 190530Z AUTO 35005KT 7000 2200 NSC 00/M01 Q1026 TEMPO 3000 BR
Conditions at: LFOK (CHALONS/VATRY FA, FR) observed 0530 UTC 19 March 2019
Temperature: 0.0°C (32°F)
Dewpoint: -1.0°C (30°F) [RH = 93%]
Pressure (altimeter): 30.30 inches Hg (1026.0 mb)
Winds: from the N (350 degrees) at 6 MPH (5 knots; 2.6 m/s)
Visibility: 4 miles ( 7 km)
Ceiling: at least 12,000 feet AGL
Clouds: sky clear below 12,000 feet AGL
Weather: no significant weather observed at this time

METAR text: LFOK 190500Z AUTO 02004KT 7000 NSC 01/00 Q1026 TEMPO 3000 BR
Conditions at: LFOK (CHALONS/VATRY FA, FR) observed 0500 UTC 19 March 2019
Temperature: 1.0°C (34°F)
Dewpoint: 0.0°C (32°F) [RH = 93%]
Pressure (altimeter): 30.30 inches Hg (1026.0 mb)
Winds: from the NNE (20 degrees) at 5 MPH (4 knots; 2.1 m/s)
Visibility: 4 miles ( 7 km)
Ceiling: at least 12,000 feet AGL
Clouds: sky clear below 12,000 feet AGL
Weather: no significant weather observed at this time

METAR text: LFOK 190430Z AUTO 02004KT 5000 BR NSC 01/00 Q1026 NOSIG
Conditions at: LFOK (CHALONS/VATRY FA, FR) observed 0430 UTC 19 March 2019
Temperature: 1.0°C (34°F)
Dewpoint: 0.0°C (32°F) [RH = 93%]
Pressure (altimeter): 30.30 inches Hg (1026.0 mb)
Winds: from the NNE (20 degrees) at 5 MPH (4 knots; 2.1 m/s)
Visibility: 3 miles ( 5 km)
Ceiling: at least 12,000 feet AGL
Clouds: sky clear below 12,000 feet AGL
Weather: BR  (mist)

METAR text: LFOK 190400Z AUTO 03004KT CAVOK 01/01 Q1026 TEMPO 3000 BR
Conditions at: LFOK (CHALONS/VATRY FA, FR) observed 0400 UTC 19 March 2019
Temperature: 1.0°C (34°F)
Dewpoint: 1.0°C (34°F) [RH = 100%]
Pressure (altimeter): 30.30 inches Hg (1026.0 mb)
Winds: from the NNE (30 degrees) at 5 MPH (4 knots; 2.1 m/s)
Visibility: 6 or more miles (10+ km)
Ceiling: ceiling and visibility are OK
Clouds: unknown
Weather: no significant weather observed at this time

METAR text: LFOK 190330Z AUTO 05005KT CAVOK 01/01 Q1026 TEMPO 0800 BCFG
Conditions at: LFOK (CHALONS/VATRY FA, FR) observed 0330 UTC 19 March 2019
Temperature: 1.0°C (34°F)
Dewpoint: 1.0°C (34°F) [RH = 100%]
Pressure (altimeter): 30.30 inches Hg (1026.0 mb)
Winds: from the NE (50 degrees) at 6 MPH (5 knots; 2.6 m/s)
Visibility: 6 or more miles (10+ km)
Ceiling: ceiling and visibility are OK
Clouds: unknown
Weather: no significant weather observed at this time

Forecast for: LFOK (CHALONS/VATRY FA, FR)
Text: TAF LFOK 201100Z 2012/2112 02005KT 9999 SCT025
Forecast period: 1200 UTC 20 March 2019 to 0000 UTC 21 March 2019
Forecast type: FROM: standard forecast or significant change
Winds: from the NNE (20 degrees) at 6 MPH (5 knots; 2.6 m/s)
Visibility: 6 or more miles 10+ km)
Ceiling: at least 12,000 feet AGL
Clouds: scattered clouds at 2500 feet AGL
Weather: no significant weather forecast for this period
Text: BECMG 2100/2103 3000 BR
Forecast period: 0000 to 0600 UTC 21 March 2019
Forecast type: BECOMING: Conditions expected to become as follows by 0300 UTC 21 March 2019
Winds: from the NNE (20 degrees) at 6 MPH (5 knots; 2.6 m/s)
Visibility: 1.86 miles (2.99 km)
Ceiling: at least 12,000 feet AGL
Clouds: scattered clouds at 2500 feet AGL
Weather: BR  (mist)
Text: BECMG 2106/2108 9999 NSW
Forecast period: 0600 to 1200 UTC 21 March 2019
Forecast type: BECOMING: Conditions expected to become as follows by 0800 UTC 21 March 2019
Winds: from the NNE (20 degrees) at 6 MPH (5 knots; 2.6 m/s)
Visibility: 6 or more miles 10+ km)
Ceiling: at least 12,000 feet AGL
Clouds: scattered clouds at 2500 feet AGL
Weather: NSW  (no significant weather)